sensor_id;sensor_type;location;lat;lon;timestamp;temperature;humidity
58993;DHT22;44782;0.000;0.000;2022-07-03T00:00:12;23.70;46.80
58993;DHT22;44782;0.000;0.000;2022-07-03T00:02:27;23.70;46.80
58993;DHT22;44782;0.000;0.000;2022-07-03T00:04:43;23.70;46.90
58993;DHT22;44782;0.000;0.000;2022-07-03T00:06:59;23.70;46.90
58993;DHT22;44782;0.000;0.000;2022-07-03T00:09:15;23.60;46.90
58993;DHT22;44782;0.000;0.000;2022-07-03T00:11:31;23.70;46.90
58993;DHT22;44782;0.000;0.000;2022-07-03T00:13:47;23.70;47.00
58993;DHT22;44782;0.000;0.000;2022-07-03T00:16:03;23.60;46.90
58993;DHT22;44782;0.000;0.000;2022-07-03T00:18:19;23.60;47.00
58993;DHT22;44782;0.000;0.000;2022-07-03T00:20:38;23.60;47.00
58993;DHT22;44782;0.000;0.000;2022-07-03T00:22:57;23.60;47.00
58993;DHT22;44782;0.000;0.000;2022-07-03T00:25:15;23.50;47.00
58993;DHT22;44782;0.000;0.000;2022-07-03T00:27:33;23.50;47.00
58993;DHT22;44782;0.000;0.000;2022-07-03T00:29:49;23.50;47.00
58993;DHT22;44782;0.000;0.000;2022-07-03T00:32:08;23.50;47.00
58993;DHT22;44782;0.000;0.000;2022-07-03T00:34:24;23.50;47.10
58993;DHT22;44782;0.000;0.000;2022-07-03T00:36:41;23.40;47.00
58993;DHT22;44782;0.000;0.000;2022-07-03T00:38:57;23.50;47.10
58993;DHT22;44782;0.000;0.000;2022-07-03T00:41:25;23.40;47.10
58993;DHT22;44782;0.000;0.000;2022-07-03T00:43:41;23.40;47.10
58993;DHT22;44782;0.000;0.000;2022-07-03T00:46:06;23.40;47.10
58993;DHT22;44782;0.000;0.000;2022-07-03T00:48:23;23.40;47.20
58993;DHT22;44782;0.000;0.000;2022-07-03T00:50:45;23.40;47.20
58993;DHT22;44782;0.000;0.000;2022-07-03T00:53:02;23.40;47.20
58993;DHT22;44782;0.000;0.000;2022-07-03T00:55:18;23.40;47.30
58993;DHT22;44782;0.000;0.000;2022-07-03T00:57:35;23.40;47.30
58993;DHT22;44782;0.000;0.000;2022-07-03T00:59:56;23.30;47.20
58993;DHT22;44782;0.000;0.000;2022-07-03T01:10:10;23.30;47.30
58993;DHT22;44782;0.000;0.000;2022-07-03T01:12:54;23.30;47.30
58993;DHT22;44782;0.000;0.000;2022-07-03T01:15:36;23.30;47.30
58993;DHT22;44782;0.000;0.000;2022-07-03T01:18:23;23.20;47.40
58993;DHT22;44782;0.000;0.000;2022-07-03T01:20:44;23.20;47.40
58993;DHT22;44782;0.000;0.000;2022-07-03T01:23:12;23.20;47.40
58993;DHT22;44782;0.000;0.000;2022-07-03T01:25:49;23.10;47.40
58993;DHT22;44782;0.000;0.000;2022-07-03T01:28:15;23.20;47.50
58993;DHT22;44782;0.000;0.000;2022-07-03T01:30:38;23.10;47.60
58993;DHT22;44782;0.000;0.000;2022-07-03T01:33:02;23.10;47.50
58993;DHT22;44782;0.000;0.000;2022-07-03T01:35:22;23.20;47.50
58993;DHT22;44782;0.000;0.000;2022-07-03T01:37:39;23.20;47.50
58993;DHT22;44782;0.000;0.000;2022-07-03T01:39:57;23.10;47.60
58993;DHT22;44782;0.000;0.000;2022-07-03T01:42:14;23.10;47.50
58993;DHT22;44782;0.000;0.000;2022-07-03T01:44:30;23.10;47.60
58993;DHT22;44782;0.000;0.000;2022-07-03T01:46:47;23.10;47.60
58993;DHT22;44782;0.000;0.000;2022-07-03T01:49:03;23.10;47.60
58993;DHT22;44782;0.000;0.000;2022-07-03T01:51:22;23.10;47.60
58993;DHT22;44782;0.000;0.000;2022-07-03T01:53:43;23.10;47.60
58993;DHT22;44782;0.000;0.000;2022-07-03T01:56:00;23.10;47.60
58993;DHT22;44782;0.000;0.000;2022-07-03T01:58:17;23.10;47.60
58993;DHT22;44782;0.000;0.000;2022-07-03T02:00:41;23.00;47.60
58993;DHT22;44782;0.000;0.000;2022-07-03T02:03:04;23.10;47.70
58993;DHT22;44782;0.000;0.000;2022-07-03T02:07:47;23.00;47.70
58993;DHT22;44782;0.000;0.000;2022-07-03T02:10:06;23.00;47.60
58993;DHT22;44782;0.000;0.000;2022-07-03T02:12:27;23.00;47.70
58993;DHT22;44782;0.000;0.000;2022-07-03T02:15:05;23.00;47.70
58993;DHT22;44782;0.000;0.000;2022-07-03T02:17:21;23.00;47.70
58993;DHT22;44782;0.000;0.000;2022-07-03T02:19:56;23.00;47.80
58993;DHT22;44782;0.000;0.000;2022-07-03T02:22:13;23.00;47.70
58993;DHT22;44782;0.000;0.000;2022-07-03T02:24:44;22.90;47.80
58993;DHT22;44782;0.000;0.000;2022-07-03T02:27:05;23.00;47.80
58993;DHT22;44782;0.000;0.000;2022-07-03T02:29:30;23.00;47.80
58993;DHT22;44782;0.000;0.000;2022-07-03T02:31:56;22.90;47.80
58993;DHT22;44782;0.000;0.000;2022-07-03T02:34:17;22.90;47.80
58993;DHT22;44782;0.000;0.000;2022-07-03T02:36:34;22.90;47.90
58993;DHT22;44782;0.000;0.000;2022-07-03T02:38:55;22.90;48.00
58993;DHT22;44782;0.000;0.000;2022-07-03T02:41:17;22.90;48.00
58993;DHT22;44782;0.000;0.000;2022-07-03T02:44:04;22.90;48.10
58993;DHT22;44782;0.000;0.000;2022-07-03T02:52:28;22.90;48.30
58993;DHT22;44782;0.000;0.000;2022-07-03T02:54:46;22.80;48.30
58993;DHT22;44782;0.000;0.000;2022-07-03T02:57:07;22.80;48.20
58993;DHT22;44782;0.000;0.000;2022-07-03T03:04:44;22.80;48.30
58993;DHT22;44782;0.000;0.000;2022-07-03T03:07:15;22.80;48.30
58993;DHT22;44782;0.000;0.000;2022-07-03T03:09:42;22.80;48.40
58993;DHT22;44782;0.000;0.000;2022-07-03T03:12:01;22.80;48.40
58993;DHT22;44782;0.000;0.000;2022-07-03T03:14:20;22.80;48.30
58993;DHT22;44782;0.000;0.000;2022-07-03T03:16:45;22.80;48.30
58993;DHT22;44782;0.000;0.000;2022-07-03T03:19:02;22.80;48.40
58993;DHT22;44782;0.000;0.000;2022-07-03T03:21:18;22.70;48.30
58993;DHT22;44782;0.000;0.000;2022-07-03T03:23:44;22.80;48.30
58993;DHT22;44782;0.000;0.000;2022-07-03T03:26:02;22.80;48.30
58993;DHT22;44782;0.000;0.000;2022-07-03T03:28:18;22.70;48.30
58993;DHT22;44782;0.000;0.000;2022-07-03T03:30:36;22.70;48.40
58993;DHT22;44782;0.000;0.000;2022-07-03T03:32:51;22.80;48.30
58993;DHT22;44782;0.000;0.000;2022-07-03T03:35:08;22.70;48.30
58993;DHT22;44782;0.000;0.000;2022-07-03T03:37:24;22.70;48.30
58993;DHT22;44782;0.000;0.000;2022-07-03T03:39:41;22.70;48.30
58993;DHT22;44782;0.000;0.000;2022-07-03T03:41:57;22.70;48.30
58993;DHT22;44782;0.000;0.000;2022-07-03T03:44:13;22.70;48.30
58993;DHT22;44782;0.000;0.000;2022-07-03T03:46:29;22.70;48.30
58993;DHT22;44782;0.000;0.000;2022-07-03T03:48:45;22.70;48.30
58993;DHT22;44782;0.000;0.000;2022-07-03T03:51:04;22.70;48.30
58993;DHT22;44782;0.000;0.000;2022-07-03T03:53:20;22.70;48.40
58993;DHT22;44782;0.000;0.000;2022-07-03T03:55:36;22.70;48.40
58993;DHT22;44782;0.000;0.000;2022-07-03T03:57:51;22.60;48.30
58993;DHT22;44782;0.000;0.000;2022-07-03T04:00:07;22.70;48.40
58993;DHT22;44782;0.000;0.000;2022-07-03T04:02:23;22.70;48.40
58993;DHT22;44782;0.000;0.000;2022-07-03T04:04:39;22.60;48.40
58993;DHT22;44782;0.000;0.000;2022-07-03T04:06:54;22.70;48.40
58993;DHT22;44782;0.000;0.000;2022-07-03T04:09:10;22.60;48.40
58993;DHT22;44782;0.000;0.000;2022-07-03T04:11:26;22.60;48.40
58993;DHT22;44782;0.000;0.000;2022-07-03T04:13:41;22.60;48.40
58993;DHT22;44782;0.000;0.000;2022-07-03T04:15:57;22.60;48.40
58993;DHT22;44782;0.000;0.000;2022-07-03T04:18:12;22.60;48.40
58993;DHT22;44782;0.000;0.000;2022-07-03T04:20:28;22.60;48.40
58993;DHT22;44782;0.000;0.000;2022-07-03T04:22:46;22.60;48.40
58993;DHT22;44782;0.000;0.000;2022-07-03T04:25:03;22.60;48.50
58993;DHT22;44782;0.000;0.000;2022-07-03T04:27:19;22.60;48.50
58993;DHT22;44782;0.000;0.000;2022-07-03T04:29:35;22.60;48.50
58993;DHT22;44782;0.000;0.000;2022-07-03T04:31:50;22.60;48.50
58993;DHT22;44782;0.000;0.000;2022-07-03T04:34:06;22.60;48.50
58993;DHT22;44782;0.000;0.000;2022-07-03T04:36:22;22.60;48.50
58993;DHT22;44782;0.000;0.000;2022-07-03T04:38:37;22.50;48.50
58993;DHT22;44782;0.000;0.000;2022-07-03T04:40:53;22.50;48.40
58993;DHT22;44782;0.000;0.000;2022-07-03T04:43:09;22.60;48.50
58993;DHT22;44782;0.000;0.000;2022-07-03T04:45:24;22.60;48.50
58993;DHT22;44782;0.000;0.000;2022-07-03T04:47:40;22.50;48.50
58993;DHT22;44782;0.000;0.000;2022-07-03T04:49:56;22.50;48.50
58993;DHT22;44782;0.000;0.000;2022-07-03T04:52:11;22.50;48.50
58993;DHT22;44782;0.000;0.000;2022-07-03T04:54:27;22.50;48.50
58993;DHT22;44782;0.000;0.000;2022-07-03T04:56:42;22.50;48.50
58993;DHT22;44782;0.000;0.000;2022-07-03T04:58:58;22.50;48.50
58993;DHT22;44782;0.000;0.000;2022-07-03T05:01:14;22.50;48.50
58993;DHT22;44782;0.000;0.000;2022-07-03T05:03:29;22.50;48.60
58993;DHT22;44782;0.000;0.000;2022-07-03T05:05:45;22.50;48.50
58993;DHT22;44782;0.000;0.000;2022-07-03T05:08:01;22.50;48.50
58993;DHT22;44782;0.000;0.000;2022-07-03T05:10:16;22.50;48.60
58993;DHT22;44782;0.000;0.000;2022-07-03T05:12:32;22.50;48.60
58993;DHT22;44782;0.000;0.000;2022-07-03T05:14:47;22.50;48.60
58993;DHT22;44782;0.000;0.000;2022-07-03T05:17:03;22.50;48.60
58993;DHT22;44782;0.000;0.000;2022-07-03T05:19:19;22.50;48.60
58993;DHT22;44782;0.000;0.000;2022-07-03T05:21:34;22.40;48.60
58993;DHT22;44782;0.000;0.000;2022-07-03T05:23:50;22.40;48.60
58993;DHT22;44782;0.000;0.000;2022-07-03T05:26:06;22.40;48.60
58993;DHT22;44782;0.000;0.000;2022-07-03T05:28:21;22.40;48.60
58993;DHT22;44782;0.000;0.000;2022-07-03T05:30:37;22.40;48.60
58993;DHT22;44782;0.000;0.000;2022-07-03T05:32:53;22.40;48.60
58993;DHT22;44782;0.000;0.000;2022-07-03T05:35:09;22.40;48.60
58993;DHT22;44782;0.000;0.000;2022-07-03T05:37:25;22.40;48.70
58993;DHT22;44782;0.000;0.000;2022-07-03T05:39:40;22.40;48.70
58993;DHT22;44782;0.000;0.000;2022-07-03T05:41:56;22.40;48.70
58993;DHT22;44782;0.000;0.000;2022-07-03T05:44:12;22.40;48.70
58993;DHT22;44782;0.000;0.000;2022-07-03T05:46:27;22.40;48.70
58993;DHT22;44782;0.000;0.000;2022-07-03T05:48:43;22.40;48.80
58993;DHT22;44782;0.000;0.000;2022-07-03T05:50:59;22.40;48.80
58993;DHT22;44782;0.000;0.000;2022-07-03T05:53:14;22.40;48.80
58993;DHT22;44782;0.000;0.000;2022-07-03T05:55:30;22.40;48.80
58993;DHT22;44782;0.000;0.000;2022-07-03T05:57:46;22.40;48.80
58993;DHT22;44782;0.000;0.000;2022-07-03T06:00:02;22.30;48.80
58993;DHT22;44782;0.000;0.000;2022-07-03T06:02:18;22.30;48.80
58993;DHT22;44782;0.000;0.000;2022-07-03T06:04:34;22.30;48.80
58993;DHT22;44782;0.000;0.000;2022-07-03T06:06:49;22.30;48.80
58993;DHT22;44782;0.000;0.000;2022-07-03T06:09:05;22.30;48.70
58993;DHT22;44782;0.000;0.000;2022-07-03T06:11:21;22.40;48.70
58993;DHT22;44782;0.000;0.000;2022-07-03T06:13:37;22.40;48.60
58993;DHT22;44782;0.000;0.000;2022-07-03T06:15:52;22.50;48.50
58993;DHT22;44782;0.000;0.000;2022-07-03T06:18:08;22.50;48.30
58993;DHT22;44782;0.000;0.000;2022-07-03T06:20:23;22.60;48.20
58993;DHT22;44782;0.000;0.000;2022-07-03T06:22:39;22.60;48.10
58993;DHT22;44782;0.000;0.000;2022-07-03T06:24:55;22.70;48.10
58993;DHT22;44782;0.000;0.000;2022-07-03T06:27:11;22.70;48.00
58993;DHT22;44782;0.000;0.000;2022-07-03T06:29:26;22.70;47.90
58993;DHT22;44782;0.000;0.000;2022-07-03T06:31:42;22.80;47.90
58993;DHT22;44782;0.000;0.000;2022-07-03T06:33:58;22.90;47.80
58993;DHT22;44782;0.000;0.000;2022-07-03T06:36:13;22.90;47.80
58993;DHT22;44782;0.000;0.000;2022-07-03T06:38:29;22.90;47.80
58993;DHT22;44782;0.000;0.000;2022-07-03T06:40:44;22.90;47.70
58993;DHT22;44782;0.000;0.000;2022-07-03T06:43:00;22.90;47.70
58993;DHT22;44782;0.000;0.000;2022-07-03T06:45:16;23.00;47.70
58993;DHT22;44782;0.000;0.000;2022-07-03T06:47:36;23.00;47.60
58993;DHT22;44782;0.000;0.000;2022-07-03T06:49:52;23.10;47.60
58993;DHT22;44782;0.000;0.000;2022-07-03T06:52:08;23.10;47.50
58993;DHT22;44782;0.000;0.000;2022-07-03T06:54:24;23.10;47.50
58993;DHT22;44782;0.000;0.000;2022-07-03T06:56:39;23.10;47.50
58993;DHT22;44782;0.000;0.000;2022-07-03T06:58:55;23.10;47.50
58993;DHT22;44782;0.000;0.000;2022-07-03T07:01:11;23.20;47.60
58993;DHT22;44782;0.000;0.000;2022-07-03T07:03:26;23.20;47.40
58993;DHT22;44782;0.000;0.000;2022-07-03T07:05:42;23.20;47.40
58993;DHT22;44782;0.000;0.000;2022-07-03T07:07:57;23.30;47.50
58993;DHT22;44782;0.000;0.000;2022-07-03T07:10:13;23.30;47.50
58993;DHT22;44782;0.000;0.000;2022-07-03T07:12:29;23.30;47.50
58993;DHT22;44782;0.000;0.000;2022-07-03T07:14:44;23.40;47.60
58993;DHT22;44782;0.000;0.000;2022-07-03T07:17:00;23.40;47.50
58993;DHT22;44782;0.000;0.000;2022-07-03T07:19:16;23.40;47.50
58993;DHT22;44782;0.000;0.000;2022-07-03T07:21:31;23.40;47.50
58993;DHT22;44782;0.000;0.000;2022-07-03T07:23:47;23.40;47.50
58993;DHT22;44782;0.000;0.000;2022-07-03T07:26:03;23.40;47.50
58993;DHT22;44782;0.000;0.000;2022-07-03T07:28:19;23.40;47.60
58993;DHT22;44782;0.000;0.000;2022-07-03T07:30:35;23.40;47.60
58993;DHT22;44782;0.000;0.000;2022-07-03T07:32:50;23.40;47.70
58993;DHT22;44782;0.000;0.000;2022-07-03T07:35:07;23.40;47.70
58993;DHT22;44782;0.000;0.000;2022-07-03T07:37:22;23.40;47.70
58993;DHT22;44782;0.000;0.000;2022-07-03T07:39:38;23.40;47.80
58993;DHT22;44782;0.000;0.000;2022-07-03T07:41:54;23.40;47.60
58993;DHT22;44782;0.000;0.000;2022-07-03T07:44:09;23.40;47.60
58993;DHT22;44782;0.000;0.000;2022-07-03T07:46:25;23.40;47.50
58993;DHT22;44782;0.000;0.000;2022-07-03T07:48:40;23.40;47.50
58993;DHT22;44782;0.000;0.000;2022-07-03T07:50:56;23.40;47.70
58993;DHT22;44782;0.000;0.000;2022-07-03T07:53:12;23.40;47.80
58993;DHT22;44782;0.000;0.000;2022-07-03T07:55:27;23.40;47.90
58993;DHT22;44782;0.000;0.000;2022-07-03T07:57:43;23.40;48.00
58993;DHT22;44782;0.000;0.000;2022-07-03T08:02:22;23.30;48.00
58993;DHT22;44782;0.000;0.000;2022-07-03T08:04:56;23.30;48.10
58993;DHT22;44782;0.000;0.000;2022-07-03T08:07:30;23.30;48.10
58993;DHT22;44782;0.000;0.000;2022-07-03T08:09:46;23.30;48.10
58993;DHT22;44782;0.000;0.000;2022-07-03T08:12:02;23.30;48.20
58993;DHT22;44782;0.000;0.000;2022-07-03T08:14:18;23.30;48.20
58993;DHT22;44782;0.000;0.000;2022-07-03T08:16:34;23.30;48.10
58993;DHT22;44782;0.000;0.000;2022-07-03T08:18:50;23.30;48.10
58993;DHT22;44782;0.000;0.000;2022-07-03T08:21:08;23.30;48.00
58993;DHT22;44782;0.000;0.000;2022-07-03T08:23:23;23.30;48.00
58993;DHT22;44782;0.000;0.000;2022-07-03T08:25:39;23.30;48.00
58993;DHT22;44782;0.000;0.000;2022-07-03T08:27:55;23.20;47.90
58993;DHT22;44782;0.000;0.000;2022-07-03T08:30:11;23.20;47.80
58993;DHT22;44782;0.000;0.000;2022-07-03T08:32:29;23.20;47.80
58993;DHT22;44782;0.000;0.000;2022-07-03T08:34:45;23.20;47.70
58993;DHT22;44782;0.000;0.000;2022-07-03T08:37:00;23.20;47.70
58993;DHT22;44782;0.000;0.000;2022-07-03T08:39:16;23.20;47.60
58993;DHT22;44782;0.000;0.000;2022-07-03T08:41:33;23.20;47.60
58993;DHT22;44782;0.000;0.000;2022-07-03T08:43:52;23.20;47.50
58993;DHT22;44782;0.000;0.000;2022-07-03T08:46:10;23.20;47.50
58993;DHT22;44782;0.000;0.000;2022-07-03T08:48:27;23.20;47.40
58993;DHT22;44782;0.000;0.000;2022-07-03T08:50:43;23.20;47.30
58993;DHT22;44782;0.000;0.000;2022-07-03T08:52:59;23.20;47.30
58993;DHT22;44782;0.000;0.000;2022-07-03T08:55:17;23.20;47.30
58993;DHT22;44782;0.000;0.000;2022-07-03T08:57:36;23.10;47.10
58993;DHT22;44782;0.000;0.000;2022-07-03T08:59:52;23.10;47.00
58993;DHT22;44782;0.000;0.000;2022-07-03T09:02:08;23.10;47.00
58993;DHT22;44782;0.000;0.000;2022-07-03T09:04:24;23.20;47.00
58993;DHT22;44782;0.000;0.000;2022-07-03T09:06:40;23.10;47.00
58993;DHT22;44782;0.000;0.000;2022-07-03T09:08:56;23.10;47.00
58993;DHT22;44782;0.000;0.000;2022-07-03T09:11:12;23.10;47.00
58993;DHT22;44782;0.000;0.000;2022-07-03T09:13:28;23.10;47.10
58993;DHT22;44782;0.000;0.000;2022-07-03T09:15:44;23.20;47.20
58993;DHT22;44782;0.000;0.000;2022-07-03T09:18:01;23.10;47.20
58993;DHT22;44782;0.000;0.000;2022-07-03T09:20:16;23.10;47.30
58993;DHT22;44782;0.000;0.000;2022-07-03T09:22:34;23.10;47.30
58993;DHT22;44782;0.000;0.000;2022-07-03T09:25:13;23.10;47.30
58993;DHT22;44782;0.000;0.000;2022-07-03T09:27:27;23.10;47.40
58993;DHT22;44782;0.000;0.000;2022-07-03T09:32:21;23.10;47.60
58993;DHT22;44782;0.000;0.000;2022-07-03T09:34:37;23.10;47.70
58993;DHT22;44782;0.000;0.000;2022-07-03T09:36:53;23.10;47.60
58993;DHT22;44782;0.000;0.000;2022-07-03T09:39:25;23.10;48.20
58993;DHT22;44782;0.000;0.000;2022-07-03T09:46:44;23.10;47.50
58993;DHT22;44782;0.000;0.000;2022-07-03T09:49:00;23.10;47.70
58993;DHT22;44782;0.000;0.000;2022-07-03T09:53:53;23.10;48.00
58993;DHT22;44782;0.000;0.000;2022-07-03T09:56:09;23.10;48.10
58993;DHT22;44782;0.000;0.000;2022-07-03T09:58:24;23.10;48.10
58993;DHT22;44782;0.000;0.000;2022-07-03T10:00:40;23.10;48.00
58993;DHT22;44782;0.000;0.000;2022-07-03T10:05:12;23.10;47.70
58993;DHT22;44782;0.000;0.000;2022-07-03T10:07:28;23.10;47.70
58993;DHT22;44782;0.000;0.000;2022-07-03T10:09:43;23.10;47.70
58993;DHT22;44782;0.000;0.000;2022-07-03T10:12:01;23.10;47.60
58993;DHT22;44782;0.000;0.000;2022-07-03T10:14:25;23.10;47.60
58993;DHT22;44782;0.000;0.000;2022-07-03T10:16:42;23.10;47.50
58993;DHT22;44782;0.000;0.000;2022-07-03T10:18:58;23.10;47.60
58993;DHT22;44782;0.000;0.000;2022-07-03T10:21:14;23.10;47.60
58993;DHT22;44782;0.000;0.000;2022-07-03T10:23:31;23.10;47.60
58993;DHT22;44782;0.000;0.000;2022-07-03T10:25:47;23.10;47.60
58993;DHT22;44782;0.000;0.000;2022-07-03T10:28:05;23.10;47.50
58993;DHT22;44782;0.000;0.000;2022-07-03T10:30:21;23.10;47.40
58993;DHT22;44782;0.000;0.000;2022-07-03T10:32:37;23.10;47.30
58993;DHT22;44782;0.000;0.000;2022-07-03T10:34:54;23.10;47.20
58993;DHT22;44782;0.000;0.000;2022-07-03T10:50:22;23.00;46.70
58993;DHT22;44782;0.000;0.000;2022-07-03T10:52:39;23.40;46.30
58993;DHT22;44782;0.000;0.000;2022-07-03T10:54:56;23.20;46.80
58993;DHT22;44782;0.000;0.000;2022-07-03T10:57:16;23.20;47.10
58993;DHT22;44782;0.000;0.000;2022-07-03T11:07:21;23.00;47.50
58993;DHT22;44782;0.000;0.000;2022-07-03T11:09:37;22.90;47.60
58993;DHT22;44782;0.000;0.000;2022-07-03T11:11:53;23.00;47.60
58993;DHT22;44782;0.000;0.000;2022-07-03T11:14:22;22.90;47.60
58993;DHT22;44782;0.000;0.000;2022-07-03T11:16:37;23.00;47.70
58993;DHT22;44782;0.000;0.000;2022-07-03T11:18:59;23.00;47.90
58993;DHT22;44782;0.000;0.000;2022-07-03T11:23:42;22.90;47.90
58993;DHT22;44782;0.000;0.000;2022-07-03T11:26:01;23.00;48.00
58993;DHT22;44782;0.000;0.000;2022-07-03T11:36:01;23.00;48.40
58993;DHT22;44782;0.000;0.000;2022-07-03T11:38:25;22.90;48.30
58993;DHT22;44782;0.000;0.000;2022-07-03T11:40:42;22.90;48.30
58993;DHT22;44782;0.000;0.000;2022-07-03T11:43:00;22.90;48.30
58993;DHT22;44782;0.000;0.000;2022-07-03T11:45:15;22.90;48.20
58993;DHT22;44782;0.000;0.000;2022-07-03T11:47:32;22.90;48.20
58993;DHT22;44782;0.000;0.000;2022-07-03T11:49:48;22.90;48.10
58993;DHT22;44782;0.000;0.000;2022-07-03T11:52:04;22.80;47.90
58993;DHT22;44782;0.000;0.000;2022-07-03T11:54:20;22.90;48.00
58993;DHT22;44782;0.000;0.000;2022-07-03T11:56:36;22.90;48.00
58993;DHT22;44782;0.000;0.000;2022-07-03T11:58:55;22.90;48.00
58993;DHT22;44782;0.000;0.000;2022-07-03T12:03:42;22.90;48.00
58993;DHT22;44782;0.000;0.000;2022-07-03T12:05:58;22.90;48.10
58993;DHT22;44782;0.000;0.000;2022-07-03T12:08:21;22.90;48.00
58993;DHT22;44782;0.000;0.000;2022-07-03T12:10:39;22.90;48.00
58993;DHT22;44782;0.000;0.000;2022-07-03T12:12:55;22.90;48.10
58993;DHT22;44782;0.000;0.000;2022-07-03T12:15:11;22.90;48.50
58993;DHT22;44782;0.000;0.000;2022-07-03T12:17:26;22.90;48.10
58993;DHT22;44782;0.000;0.000;2022-07-03T12:19:50;22.90;48.10
58993;DHT22;44782;0.000;0.000;2022-07-03T12:22:06;22.90;48.00
58993;DHT22;44782;0.000;0.000;2022-07-03T12:24:23;22.90;48.10
58993;DHT22;44782;0.000;0.000;2022-07-03T12:26:39;22.90;48.00
58993;DHT22;44782;0.000;0.000;2022-07-03T12:29:00;22.90;47.90
58993;DHT22;44782;0.000;0.000;2022-07-03T12:31:16;22.90;48.50
58993;DHT22;44782;0.000;0.000;2022-07-03T12:33:32;22.90;47.90
58993;DHT22;44782;0.000;0.000;2022-07-03T12:36:07;22.90;47.90
58993;DHT22;44782;0.000;0.000;2022-07-03T12:38:30;22.90;47.70
58993;DHT22;44782;0.000;0.000;2022-07-03T12:41:02;22.90;47.80
58993;DHT22;44782;0.000;0.000;2022-07-03T12:43:17;22.90;47.80
58993;DHT22;44782;0.000;0.000;2022-07-03T12:45:33;22.90;47.90
58993;DHT22;44782;0.000;0.000;2022-07-03T12:48:00;22.90;47.90
58993;DHT22;44782;0.000;0.000;2022-07-03T12:50:16;22.90;47.80
58993;DHT22;44782;0.000;0.000;2022-07-03T12:52:34;22.90;47.90
58993;DHT22;44782;0.000;0.000;2022-07-03T12:55:03;22.90;47.80
58993;DHT22;44782;0.000;0.000;2022-07-03T12:57:21;22.90;47.70
58993;DHT22;44782;0.000;0.000;2022-07-03T13:00:09;22.90;47.70
58993;DHT22;44782;0.000;0.000;2022-07-03T13:02:26;22.90;47.50
58993;DHT22;44782;0.000;0.000;2022-07-03T13:04:42;22.80;47.60
58993;DHT22;44782;0.000;0.000;2022-07-03T13:07:06;22.80;47.60
58993;DHT22;44782;0.000;0.000;2022-07-03T13:09:24;22.90;47.60
58993;DHT22;44782;0.000;0.000;2022-07-03T13:11:41;22.90;47.70
58993;DHT22;44782;0.000;0.000;2022-07-03T13:14:16;22.80;47.50
58993;DHT22;44782;0.000;0.000;2022-07-03T13:16:44;22.90;47.40
58993;DHT22;44782;0.000;0.000;2022-07-03T13:19:00;22.90;47.40
58993;DHT22;44782;0.000;0.000;2022-07-03T13:21:16;22.90;47.60
58993;DHT22;44782;0.000;0.000;2022-07-03T13:23:31;22.80;47.60
58993;DHT22;44782;0.000;0.000;2022-07-03T13:25:47;22.80;47.60
58993;DHT22;44782;0.000;0.000;2022-07-03T13:28:21;22.80;47.60
58993;DHT22;44782;0.000;0.000;2022-07-03T13:30:38;22.90;47.50
58993;DHT22;44782;0.000;0.000;2022-07-03T13:32:54;22.90;47.40
58993;DHT22;44782;0.000;0.000;2022-07-03T13:35:10;22.80;47.30
58993;DHT22;44782;0.000;0.000;2022-07-03T13:37:26;22.80;47.40
58993;DHT22;44782;0.000;0.000;2022-07-03T13:39:42;22.90;47.40
58993;DHT22;44782;0.000;0.000;2022-07-03T13:41:57;22.90;47.40
58993;DHT22;44782;0.000;0.000;2022-07-03T13:44:13;22.90;47.50
58993;DHT22;44782;0.000;0.000;2022-07-03T13:46:28;22.90;47.50
58993;DHT22;44782;0.000;0.000;2022-07-03T13:48:44;22.90;47.50
58993;DHT22;44782;0.000;0.000;2022-07-03T13:51:00;22.90;47.40
58993;DHT22;44782;0.000;0.000;2022-07-03T13:53:15;22.90;47.40
58993;DHT22;44782;0.000;0.000;2022-07-03T13:55:31;22.90;47.40
58993;DHT22;44782;0.000;0.000;2022-07-03T13:57:47;22.90;47.40
58993;DHT22;44782;0.000;0.000;2022-07-03T14:00:03;22.90;47.50
58993;DHT22;44782;0.000;0.000;2022-07-03T14:02:18;22.90;48.10
58993;DHT22;44782;0.000;0.000;2022-07-03T14:04:34;22.90;47.40
58993;DHT22;44782;0.000;0.000;2022-07-03T14:06:50;22.90;47.40
58993;DHT22;44782;0.000;0.000;2022-07-03T14:09:05;22.90;47.40
58993;DHT22;44782;0.000;0.000;2022-07-03T14:11:21;22.90;47.40
58993;DHT22;44782;0.000;0.000;2022-07-03T14:13:37;22.90;47.50
58993;DHT22;44782;0.000;0.000;2022-07-03T14:15:53;22.90;47.40
58993;DHT22;44782;0.000;0.000;2022-07-03T14:18:08;22.90;47.30
58993;DHT22;44782;0.000;0.000;2022-07-03T14:20:24;23.00;47.20
58993;DHT22;44782;0.000;0.000;2022-07-03T14:22:40;22.90;47.20
58993;DHT22;44782;0.000;0.000;2022-07-03T14:24:56;22.90;47.30
58993;DHT22;44782;0.000;0.000;2022-07-03T14:27:11;23.00;47.40
58993;DHT22;44782;0.000;0.000;2022-07-03T14:29:46;23.00;47.30
58993;DHT22;44782;0.000;0.000;2022-07-03T14:32:20;23.00;47.30
58993;DHT22;44782;0.000;0.000;2022-07-03T14:34:45;23.00;47.30
58993;DHT22;44782;0.000;0.000;2022-07-03T14:37:00;23.00;47.20
58993;DHT22;44782;0.000;0.000;2022-07-03T14:39:16;23.00;47.10
58993;DHT22;44782;0.000;0.000;2022-07-03T14:41:31;23.00;47.00
58993;DHT22;44782;0.000;0.000;2022-07-03T14:43:47;23.00;47.00
58993;DHT22;44782;0.000;0.000;2022-07-03T14:46:03;23.00;46.80
58993;DHT22;44782;0.000;0.000;2022-07-03T14:48:18;23.00;46.70
58993;DHT22;44782;0.000;0.000;2022-07-03T14:50:34;23.00;46.50
58993;DHT22;44782;0.000;0.000;2022-07-03T14:52:50;23.00;46.20
58993;DHT22;44782;0.000;0.000;2022-07-03T14:55:05;23.00;46.00
58993;DHT22;44782;0.000;0.000;2022-07-03T15:00:07;23.00;45.80
58993;DHT22;44782;0.000;0.000;2022-07-03T15:05:06;23.00;45.40
58993;DHT22;44782;0.000;0.000;2022-07-03T15:07:23;23.00;45.40
58993;DHT22;44782;0.000;0.000;2022-07-03T15:09:46;23.00;45.50
58993;DHT22;44782;0.000;0.000;2022-07-03T15:12:06;23.00;45.30
58993;DHT22;44782;0.000;0.000;2022-07-03T15:14:45;23.00;45.30
58993;DHT22;44782;0.000;0.000;2022-07-03T15:17:01;23.00;45.10
58993;DHT22;44782;0.000;0.000;2022-07-03T15:19:17;23.00;45.20
58993;DHT22;44782;0.000;0.000;2022-07-03T15:21:37;23.00;45.00
58993;DHT22;44782;0.000;0.000;2022-07-03T15:23:53;23.00;45.00
58993;DHT22;44782;0.000;0.000;2022-07-03T15:26:09;23.00;44.90
58993;DHT22;44782;0.000;0.000;2022-07-03T15:28:25;23.00;44.90
58993;DHT22;44782;0.000;0.000;2022-07-03T15:30:54;23.00;44.90
58993;DHT22;44782;0.000;0.000;2022-07-03T15:33:09;23.10;44.40
58993;DHT22;44782;0.000;0.000;2022-07-03T15:35:25;23.00;44.70
58993;DHT22;44782;0.000;0.000;2022-07-03T15:50:30;23.00;44.50
58993;DHT22;44782;0.000;0.000;2022-07-03T15:52:48;23.00;44.60
58993;DHT22;44782;0.000;0.000;2022-07-03T15:55:07;23.00;44.60
58993;DHT22;44782;0.000;0.000;2022-07-03T16:00:06;23.00;44.10
58993;DHT22;44782;0.000;0.000;2022-07-03T16:02:31;23.00;44.40
58993;DHT22;44782;0.000;0.000;2022-07-03T16:05:03;23.00;44.50
58993;DHT22;44782;0.000;0.000;2022-07-03T16:07:20;23.00;44.20
58993;DHT22;44782;0.000;0.000;2022-07-03T16:09:38;23.00;44.60
58993;DHT22;44782;0.000;0.000;2022-07-03T16:11:54;23.00;44.60
58993;DHT22;44782;0.000;0.000;2022-07-03T16:14:10;23.00;44.60
58993;DHT22;44782;0.000;0.000;2022-07-03T16:16:28;23.00;44.60